Time;durP1;ratioP1;P1;durP2;ratioP2;P2;SDS_P1;SDS_P2;PMS_P1;PMS_P2;Temp;Humidity;BMP_temperature;BMP_pressure;BME280_temperature;BME280_humidity;BME280_pressure;Samples;Min_cycle;Max_cycle;Signal;HPM_P1;HPM_P2
2021/06/15 00:01:21;;;;;;;3.70;3.02;;;;;;;13.23;88.98;94582.52;1719183;82;21042;-55
2021/06/15 00:03:48;;;;;;;3.30;3.00;;;;;;;13.23;88.84;94583.89;1719539;82;21100;-57
2021/06/15 00:06:15;;;;;;;4.47;3.67;;;;;;;13.22;89.00;94589.25;1727898;81;21166;-57
2021/06/15 00:08:41;;;;;;;6.42;4.20;;;;;;;13.22;89.21;94594.17;1719299;82;21047;-57
2021/06/15 00:11:08;;;;;;;4.53;4.10;;;;;;;13.24;89.17;94597.86;1730741;82;21088;-55
2021/06/15 00:13:35;;;;;;;4.17;3.75;;;;;;;13.22;89.10;94592.01;1711320;82;21049;-55
2021/06/15 00:16:02;;;;;;;7.33;4.22;;;;;;;13.21;89.30;94592.64;1730796;82;23017;-57
2021/06/15 00:18:29;;;;;;;4.65;4.22;;;;;;;13.18;89.16;94598.33;1724981;82;21517;-55
2021/06/15 00:20:55;;;;;;;4.40;4.00;;;;;;;13.13;89.28;94605.88;1728799;81;20994;-56
2021/06/15 00:23:22;;;;;;;6.53;3.47;;;;;;;13.12;89.42;94602.96;1730419;82;21435;-56
2021/06/15 00:25:49;;;;;;;5.47;3.75;;;;;;;13.10;89.23;94599.91;1740023;82;21065;-56
2021/06/15 00:28:16;;;;;;;4.40;3.75;;;;;;;13.06;89.57;94601.45;1728288;82;20975;-56
2021/06/15 00:30:42;;;;;;;3.80;3.50;;;;;;;13.08;89.73;94600.36;1731666;82;21002;-56
2021/06/15 00:33:10;;;;;;;3.52;3.15;;;;;;;13.08;89.68;94594.83;1718777;82;21538;-55
2021/06/15 00:35:37;;;;;;;3.62;3.27;;;;;;;13.07;89.66;94596.06;1722104;82;21164;-56
2021/06/15 00:38:04;;;;;;;4.35;2.90;;;;;;;13.04;89.65;94587.97;1725981;82;20931;-56
2021/06/15 00:40:31;;;;;;;3.22;2.92;;;;;;;13.05;89.98;94593.64;1724958;82;21006;-56
2021/06/15 00:42:58;;;;;;;5.37;3.12;;;;;;;13.08;89.92;94587.19;1719572;82;21092;-55
2021/06/15 00:45:28;;;;;;;6.22;3.60;;;;;;;13.10;90.25;94595.77;1727892;82;20966;-56
2021/06/15 00:47:55;;;;;;;3.52;3.27;;;;;;;13.12;90.10;94591.28;1732844;82;21775;-56
2021/06/15 00:50:24;;;;;;;5.17;3.00;;;;;;;13.10;90.04;94584.72;1727174;81;20940;-56
2021/06/15 00:52:53;;;;;;;4.22;3.00;;;;;;;13.07;89.95;94587.03;1721662;82;21011;-56
2021/06/15 00:55:22;;;;;;;3.35;3.05;;;;;;;13.06;90.12;94585.50;1725791;82;20955;-55
2021/06/15 00:57:49;;;;;;;3.80;3.08;;;;;;;13.06;90.26;94584.88;1711917;82;21492;-57
2021/06/15 01:00:19;;;;;;;8.20;3.85;;;;;;;13.09;90.49;94583.94;1718532;83;21948;-56
2021/06/15 01:02:45;;;;;;;6.03;3.45;;;;;;;13.10;90.64;94577.18;1703885;84;21532;-56
2021/06/15 01:05:14;;;;;;;3.55;3.22;;;;;;;13.11;90.38;94584.86;1716066;83;20966;-56
2021/06/15 01:08:23;;;;;;;3.98;3.10;;;;;;;13.12;90.37;94581.61;1685483;83;21007;-56
2021/06/15 01:11:12;;;;;;;3.47;3.10;;;;;;;13.13;90.45;94583.77;1710336;83;20980;-56
2021/06/15 01:13:44;;;;;;;3.35;3.05;;;;;;;13.10;90.39;94575.80;1708309;83;21159;-55
2021/06/15 01:16:38;;;;;;;2.92;2.62;;;;;;;13.07;90.67;94585.02;1715221;82;21408;-56
2021/06/15 01:19:37;;;;;;;2.80;2.60;;;;;;;13.06;90.60;94574.45;1694506;83;21540;-55
2021/06/15 01:22:22;;;;;;;6.58;3.70;;;;;;;13.06;90.89;94574.45;1720246;82;21478;-56
2021/06/15 01:25:09;;;;;;;3.20;2.90;;;;;;;13.10;90.94;94565.38;1707476;82;21002;-57
2021/06/15 01:27:57;;;;;;;2.60;2.40;;;;;;;13.11;90.91;94562.13;1704793;82;21140;-56
2021/06/15 01:30:34;;;;;;;3.22;2.58;;;;;;;13.09;91.19;94572.14;1712619;83;20947;-56
2021/06/15 01:33:04;;;;;;;2.75;2.55;;;;;;;13.08;91.13;94561.70;1727540;81;21007;-55
2021/06/15 01:35:32;;;;;;;2.85;2.65;;;;;;;13.04;91.19;94565.25;1723021;81;21214;-55
2021/06/15 01:38:12;;;;;;;3.40;2.87;;;;;;;13.06;91.29;94568.94;1718576;81;21121;-56
2021/06/15 01:40:50;;;;;;;3.75;3.25;;;;;;;13.08;91.17;94563.70;1720035;82;22112;-55
2021/06/15 01:43:33;;;;;;;3.05;2.80;;;;;;;13.11;91.31;94571.05;1724014;81;21054;-55
2021/06/15 01:46:02;;;;;;;3.12;2.80;;;;;;;13.13;91.23;94568.58;1736822;81;21090;-55
2021/06/15 01:48:42;;;;;;;5.08;3.00;;;;;;;13.13;91.08;94568.58;1719170;82;21239;-57
2021/06/15 01:51:10;;;;;;;25.32;15.60;;;;;;;13.07;91.00;94565.69;1730602;82;21062;-55
2021/06/15 01:53:44;;;;;;;3.98;3.58;;;;;;;13.07;91.26;94566.32;1727187;82;21126;-54
2021/06/15 01:56:15;;;;;;;3.87;3.20;;;;;;;13.06;91.71;94571.06;1720375;82;21120;-56
2021/06/15 01:58:44;;;;;;;3.27;3.08;;;;;;;13.13;92.01;94569.97;1702569;82;20971;-57
2021/06/15 02:01:12;;;;;;;6.87;6.17;;;;;;;13.17;91.68;94563.65;1725168;82;21054;-56
2021/06/15 02:03:42;;;;;;;2.70;2.50;;;;;;;13.19;91.50;94563.34;1736549;81;20951;-56
2021/06/15 02:06:11;;;;;;;3.47;3.17;;;;;;;13.22;91.60;94563.00;1656855;84;22076;-56
2021/06/15 02:08:46;;;;;;;4.37;2.85;;;;;;;13.25;91.35;94559.33;1731939;82;21036;-57
2021/06/15 02:11:16;;;;;;;2.35;2.25;;;;;;;13.24;91.37;94557.80;1688577;83;21047;-57
2021/06/15 02:13:46;;;;;;;2.50;2.30;;;;;;;13.26;91.19;94558.09;1696441;83;21100;-56
2021/06/15 02:16:31;;;;;;;2.77;2.58;;;;;;;13.25;91.06;94558.70;1653984;84;21081;-55
2021/06/15 02:19:03;;;;;;;2.42;2.22;;;;;;;13.28;91.31;94563.28;1619045;85;21784;-55
2021/06/15 02:21:37;;;;;;;2.87;2.55;;;;;;;13.31;91.26;94564.35;1659911;85;21026;-56
2021/06/15 02:24:05;;;;;;;4.10;2.50;;;;;;;13.30;91.02;94562.19;1635389;85;21133;-61
2021/06/15 02:26:32;;;;;;;3.83;2.10;;;;;;;13.30;90.97;94561.45;1654201;84;21023;-61
2021/06/15 02:29:00;;;;;;;2.47;2.27;;;;;;;13.33;90.98;94566.02;1640231;84;20986;-61
2021/06/15 02:31:41;;;;;;;8.58;6.33;;;;;;;13.29;90.71;94570.97;1659213;85;21140;-61
2021/06/15 02:34:11;;;;;;;2.87;2.67;;;;;;;13.24;90.68;94568.22;1677756;85;21055;-63
2021/06/15 02:36:42;;;;;;;3.10;2.40;;;;;;;13.20;91.01;94578.68;1701529;82;20999;-62
2021/06/15 02:39:18;;;;;;;2.30;2.10;;;;;;;13.18;91.03;94572.08;1718196;82;20987;-62
2021/06/15 02:41:46;;;;;;;2.40;2.20;;;;;;;13.15;91.00;94577.17;1713941;82;21105;-62
2021/06/15 02:44:20;;;;;;;2.25;2.15;;;;;;;13.12;91.38;94576.72;1716379;82;21073;-64
2021/06/15 02:46:51;;;;;;;4.22;2.40;;;;;;;13.12;91.42;94576.72;1713190;82;21164;-64
2021/06/15 02:49:24;;;;;;;2.83;2.62;;;;;;;13.10;91.45;94581.95;1715124;82;21010;-63
2021/06/15 02:52:08;;;;;;;3.22;2.40;;;;;;;13.09;91.60;94587.33;1699788;82;20978;-63
2021/06/15 02:54:40;;;;;;;2.70;2.50;;;;;;;13.10;91.58;94586.09;1711656;82;21028;-62
2021/06/15 02:57:08;;;;;;;2.58;2.37;;;;;;;13.08;91.73;94588.56;1695142;83;21184;-61
2021/06/15 02:59:38;;;;;;;2.80;2.60;;;;;;;13.09;92.06;94588.08;1728135;81;21541;-61
2021/06/15 03:02:05;;;;;;;2.42;2.22;;;;;;;13.10;92.18;94601.29;1722263;81;21117;-61
2021/06/15 03:04:46;;;;;;;2.47;2.30;;;;;;;13.12;92.32;94602.96;1720584;82;21129;-57
2021/06/15 03:07:15;;;;;;;2.83;2.37;;;;;;;13.14;92.36;94599.12;1719027;82;21194;-56
2021/06/15 03:09:43;;;;;;;2.92;2.35;;;;;;;13.18;92.55;94606.01;1725544;82;21777;-56
2021/06/15 03:12:17;;;;;;;2.58;2.20;;;;;;;13.21;92.26;94607.05;1727830;82;20990;-55
2021/06/15 03:14:56;;;;;;;2.40;2.30;;;;;;;13.22;92.31;94617.65;1722273;82;21046;-56
2021/06/15 03:17:25;;;;;;;2.50;2.30;;;;;;;13.29;92.70;94616.55;1715387;82;21065;-56
2021/06/15 03:19:59;;;;;;;3.35;2.25;;;;;;;13.34;92.36;94608.39;1728266;81;21053;-56
2021/06/15 03:22:48;;;;;;;2.50;2.30;;;;;;;13.40;92.22;94614.03;1718394;81;21242;-56
2021/06/15 03:25:19;;;;;;;3.30;2.27;;;;;;;13.42;91.72;94610.20;1721596;82;21144;-56
2021/06/15 03:27:57;;;;;;;2.42;2.25;;;;;;;13.44;91.70;94616.02;1720543;82;21081;-56
2021/06/15 03:30:24;;;;;;;2.42;2.33;;;;;;;13.42;91.52;94617.11;1720294;82;21462;-56
2021/06/15 03:33:03;;;;;;;3.72;2.50;;;;;;;13.36;91.32;94615.60;1695984;81;21494;-56
2021/06/15 03:35:32;;;;;;;2.92;2.62;;;;;;;13.28;91.53;94627.45;1720840;82;21155;-56
2021/06/15 03:38:02;;;;;;;4.10;2.60;;;;;;;13.27;91.79;94629.44;1693979;82;21047;-56
2021/06/15 03:40:33;;;;;;;2.37;2.27;;;;;;;13.27;92.17;94627.31;1715056;82;21096;-56
2021/06/15 03:43:00;;;;;;;4.10;2.65;;;;;;;13.37;92.77;94632.93;1726004;82;21026;-56
2021/06/15 03:45:32;;;;;;;4.55;2.65;;;;;;;13.42;92.35;94632.31;1731232;81;21012;-56
2021/06/15 03:48:00;;;;;;;2.85;2.58;;;;;;;13.44;91.95;94635.37;1731475;81;21140;-57
2021/06/15 03:50:27;;;;;;;4.67;3.10;;;;;;;13.42;91.77;94635.08;1724050;81;21046;-55
2021/06/15 03:52:55;;;;;;;4.70;1.92;;;;;;;13.45;92.08;94629.98;1723254;82;20963;-66
2021/06/15 03:55:23;;;;;;;2.60;2.40;;;;;;;13.48;91.96;94633.95;1732030;82;21006;-65
2021/06/15 03:57:50;;;;;;;2.42;2.25;;;;;;;13.52;91.82;94631.80;1742347;81;20986;-60
2021/06/15 04:00:19;;;;;;;4.65;3.20;;;;;;;13.50;91.55;94633.48;1728697;82;21151;-60
2021/06/15 04:02:48;;;;;;;5.25;3.10;;;;;;;13.47;91.59;94636.56;1725200;82;21466;-60
2021/06/15 04:05:15;;;;;;;3.98;3.50;;;;;;;13.48;91.73;94641.48;1730632;82;21054;-59
2021/06/15 04:07:43;;;;;;;3.55;3.10;;;;;;;13.51;91.76;94638.56;1734906;82;21051;-60
2021/06/15 04:10:12;;;;;;;3.98;3.52;;;;;;;13.53;91.68;94633.93;1727480;82;20967;-60
2021/06/15 04:12:38;;;;;;;4.53;2.90;;;;;;;13.53;91.70;94636.09;1716961;82;21171;-60
2021/06/15 04:15:08;;;;;;;3.62;3.33;;;;;;;13.53;91.55;94634.71;1723043;81;21403;-60
2021/06/15 04:17:45;;;;;;;4.35;3.30;;;;;;;13.50;91.43;94636.25;1710554;82;21520;-60
2021/06/15 04:20:13;;;;;;;5.97;3.52;;;;;;;13.50;91.59;94633.48;1726915;81;21053;-59
2021/06/15 04:22:45;;;;;;;4.45;3.27;;;;;;;13.55;91.94;94637.77;1703025;82;20982;-59
2021/06/15 04:25:18;;;;;;;3.40;3.10;;;;;;;13.57;91.67;94633.13;1717115;82;21112;-59
2021/06/15 04:27:46;;;;;;;7.28;4.45;;;;;;;13.55;91.63;94636.98;1705183;82;20966;-59
2021/06/15 04:30:15;;;;;;;4.40;3.55;;;;;;;13.58;91.77;94637.43;1713992;82;21084;-59
2021/06/15 04:32:57;;;;;;;9.10;5.25;;;;;;;13.66;92.08;94630.34;1713976;82;21164;-58
2021/06/15 04:35:45;;;;;;;4.72;3.98;;;;;;;13.71;91.64;94636.59;1708852;82;20967;-59
2021/06/15 04:38:22;;;;;;;8.45;3.52;;;;;;;13.70;91.67;94643.36;1710417;82;21078;-58
2021/06/15 04:40:52;;;;;;;4.03;3.62;;;;;;;13.74;91.76;94637.04;1705286;82;21035;-58
2021/06/15 04:43:40;;;;;;;4.20;3.80;;;;;;;13.75;91.62;94642.11;1723338;81;21004;-59
2021/06/15 04:46:24;;;;;;;3.52;3.22;;;;;;;13.81;91.83;94657.45;1725902;82;21058;-57
2021/06/15 04:49:02;;;;;;;4.00;3.55;;;;;;;13.80;91.51;94658.05;1732526;81;20937;-60
2021/06/15 04:51:29;;;;;;;3.70;3.37;;;;;;;13.80;91.85;94660.81;1712880;82;21122;-61
2021/06/15 04:53:58;;;;;;;3.77;3.47;;;;;;;13.79;91.63;94664.81;1674893;83;21046;-59
2021/06/15 04:56:25;;;;;;;4.83;4.42;;;;;;;13.75;91.66;94661.47;1705939;83;21184;-59
2021/06/15 04:58:51;;;;;;;5.00;4.50;;;;;;;13.73;91.69;94658.41;1714288;81;20978;-59
2021/06/15 05:01:18;;;;;;;5.03;4.42;;;;;;;13.72;91.69;94656.88;1709302;83;21031;-59
2021/06/15 05:03:45;;;;;;;5.12;4.47;;;;;;;13.70;91.90;94658.57;1709821;83;21810;-59
2021/06/15 05:06:12;;;;;;;4.95;4.55;;;;;;;13.70;92.16;94666.26;1687970;82;21069;-59
2021/06/15 05:08:54;;;;;;;5.05;3.80;;;;;;;13.71;92.29;94671.16;1701527;82;21029;-59
2021/06/15 05:11:21;;;;;;;4.45;3.90;;;;;;;13.75;92.83;94664.83;1719574;82;21029;-58
2021/06/15 05:13:48;;;;;;;4.15;3.75;;;;;;;13.87;92.98;94676.30;1721908;82;21019;-59
2021/06/15 05:16:16;;;;;;;3.72;3.42;;;;;;;13.91;92.83;94668.59;1717219;82;21178;-59
2021/06/15 05:18:43;;;;;;;8.38;7.37;;;;;;;13.97;92.93;94672.25;1702524;82;22168;-59
2021/06/15 05:21:16;;;;;;;7.28;5.58;;;;;;;14.08;93.30;94671.88;1728081;81;21054;-59
2021/06/15 05:23:58;;;;;;;6.92;4.67;;;;;;;14.24;92.96;94673.48;1729754;82;21029;-58
2021/06/15 05:26:25;;;;;;;5.05;4.45;;;;;;;14.33;92.73;94667.89;1703867;82;20999;-59
2021/06/15 05:28:53;;;;;;;4.85;4.45;;;;;;;14.42;91.88;94672.73;1723581;82;21969;-59
2021/06/15 05:31:19;;;;;;;6.80;5.00;;;;;;;14.47;91.71;94678.36;1724082;81;21092;-59
2021/06/15 05:33:46;;;;;;;4.33;3.92;;;;;;;14.50;91.45;94682.97;1713872;82;21019;-59
2021/06/15 05:36:12;;;;;;;5.65;5.05;;;;;;;14.55;91.46;94685.69;1733475;81;21014;-61
2021/06/15 05:38:42;;;;;;;6.00;5.15;;;;;;;14.60;91.33;94689.95;1718244;82;21049;-59
2021/06/15 05:41:09;;;;;;;7.10;5.50;;;;;;;14.64;91.19;94687.00;1679642;81;21168;-59
2021/06/15 05:43:36;;;;;;;9.03;6.80;;;;;;;14.64;91.23;94686.38;1736960;81;20999;-59
2021/06/15 05:46:03;;;;;;;10.70;8.20;;;;;;;14.70;91.31;94696.17;1692874;81;21015;-60
2021/06/15 05:48:30;;;;;;;10.58;6.70;;;;;;;14.73;91.07;94695.22;1721766;81;21065;-59
2021/06/15 05:50:57;;;;;;;14.70;12.80;;;;;;;14.78;90.99;94699.48;1716713;81;20962;-58
2021/06/15 05:53:26;;;;;;;14.45;10.65;;;;;;;14.78;90.70;94700.88;1723206;82;21132;-59
2021/06/15 05:55:55;;;;;;;12.40;11.20;;;;;;;14.79;90.86;94696.86;1711449;80;21069;-60
2021/06/15 05:58:22;;;;;;;10.20;9.28;;;;;;;14.84;91.05;94698.22;1717403;81;21026;-60
2021/06/15 06:00:49;;;;;;;19.23;13.55;;;;;;;14.93;90.60;94706.42;1710569;80;21442;-62
2021/06/15 06:03:32;;;;;;;13.50;9.10;;;;;;;14.99;90.02;94701.77;1704958;80;21009;-62
2021/06/15 06:08:45;;;;;;;7.10;6.40;;;;;;;15.01;89.90;94701.42;1728141;80;21591;-57
2021/06/15 06:11:12;;;;;;;6.08;5.45;;;;;;;15.04;89.59;94699.08;1714759;81;21089;-58
2021/06/15 06:13:38;;;;;;;6.60;5.80;;;;;;;15.09;89.49;94701.20;1716897;82;21535;-59
2021/06/15 06:16:08;;;;;;;7.08;6.08;;;;;;;15.18;89.42;94696.20;1719920;81;21043;-61
2021/06/15 06:18:34;;;;;;;13.58;10.98;;;;;;;15.27;89.06;94693.31;1701964;81;21210;-61
2021/06/15 06:21:06;;;;;;;7.60;6.60;;;;;;;15.34;88.69;94699.91;1714600;81;21226;-61
2021/06/15 06:23:34;;;;;;;13.20;7.40;;;;;;;15.42;89.15;94687.95;1709318;81;32578;-62
2021/06/15 06:26:02;;;;;;;7.87;5.83;;;;;;;15.58;88.74;94693.61;1707188;81;21013;-60
2021/06/15 06:28:28;;;;;;;8.48;6.30;;;;;;;15.68;88.15;94697.79;1711749;81;21155;-63
2021/06/15 06:30:56;;;;;;;10.98;9.93;;;;;;;15.76;87.27;94695.53;1709825;81;21115;-63
2021/06/15 06:33:22;;;;;;;10.90;8.20;;;;;;;15.74;86.42;94693.86;1719825;81;22207;-63
2021/06/15 06:35:49;;;;;;;9.38;8.08;;;;;;;15.71;86.44;94697.61;1714737;81;21084;-61
2021/06/15 06:38:17;;;;;;;7.72;6.95;;;;;;;15.74;86.43;94692.48;1707736;82;21699;-62
2021/06/15 06:40:44;;;;;;;13.68;7.70;;;;;;;15.79;86.22;94693.20;1713340;82;21038;-62
2021/06/15 06:43:11;;;;;;;6.83;6.12;;;;;;;15.91;86.54;94695.52;1712019;82;21081;-64
2021/06/15 06:45:37;;;;;;;8.63;6.72;;;;;;;16.02;85.88;94698.44;1700242;82;21517;-60
2021/06/15 06:48:06;;;;;;;7.60;6.00;;;;;;;16.12;85.60;94697.08;1700868;81;22423;-63
2021/06/15 06:50:34;;;;;;;7.12;5.97;;;;;;;16.17;84.82;94693.61;1698073;81;21164;-63
2021/06/15 06:53:01;;;;;;;5.97;5.37;;;;;;;16.20;84.28;94694.80;1706996;81;21014;-63
2021/06/15 06:55:29;;;;;;;6.25;5.20;;;;;;;16.21;84.05;94694.94;1709480;81;21145;-62
2021/06/15 06:57:57;;;;;;;7.37;4.70;;;;;;;16.25;83.55;94697.52;1694759;82;21573;-60
2021/06/15 07:00:24;;;;;;;7.35;5.40;;;;;;;16.28;82.83;94692.52;1720230;80;21087;-60
2021/06/15 07:02:51;;;;;;;5.78;5.10;;;;;;;16.31;82.67;94701.88;1718702;80;21068;-60
2021/06/15 07:05:18;;;;;;;5.17;4.65;;;;;;;16.31;82.26;94694.32;1703510;82;22245;-60
2021/06/15 07:07:45;;;;;;;5.65;4.80;;;;;;;16.34;82.24;94693.98;1720275;81;21087;-60
2021/06/15 07:10:13;;;;;;;5.72;4.97;;;;;;;16.40;82.02;94699.00;1721669;80;20983;-60
2021/06/15 07:12:41;;;;;;;7.90;6.05;;;;;;;16.47;81.80;94701.36;1717678;80;21497;-59
2021/06/15 07:15:09;;;;;;;7.10;6.08;;;;;;;16.52;82.30;94702.82;1716619;82;21008;-58
2021/06/15 07:17:35;;;;;;;9.03;6.60;;;;;;;16.52;83.02;94705.59;1713315;82;21038;-62
2021/06/15 07:20:04;;;;;;;7.92;7.00;;;;;;;16.50;83.79;94703.16;1701552;82;21193;-60
2021/06/15 07:22:31;;;;;;;9.50;6.65;;;;;;;16.54;84.25;94704.48;1711014;81;21162;-67
2021/06/15 07:24:58;;;;;;;16.45;13.03;;;;;;;16.60;84.20;94699.00;1713837;81;21582;-62
2021/06/15 07:27:25;;;;;;;10.43;8.63;;;;;;;16.60;84.30;94700.39;1701045;82;21205;-60
2021/06/15 07:29:53;;;;;;;8.70;6.80;;;;;;;16.59;84.81;94700.25;1706405;81;21060;-58
2021/06/15 07:32:22;;;;;;;14.95;13.28;;;;;;;16.64;85.00;94702.33;1692080;82;21216;-58
2021/06/15 07:34:49;;;;;;;8.03;6.80;;;;;;;16.75;85.07;94692.75;1717484;80;21011;-56
2021/06/15 07:37:16;;;;;;;12.28;8.88;;;;;;;16.92;84.32;94697.87;1668948;83;21068;-56
2021/06/15 07:39:43;;;;;;;9.80;8.35;;;;;;;17.07;83.87;94692.98;1701567;82;21171;-62
2021/06/15 07:42:10;;;;;;;18.12;13.08;;;;;;;17.29;82.86;94686.23;1734296;81;21081;-57
2021/06/15 07:44:37;;;;;;;8.73;7.83;;;;;;;17.57;82.56;94680.30;1700103;81;21170;-57
2021/06/15 07:47:04;;;;;;;6.85;6.15;;;;;;;17.93;82.26;94678.17;1714062;81;21070;-55
2021/06/15 07:49:30;;;;;;;7.20;6.50;;;;;;;18.25;80.67;94679.78;1717934;81;21029;-55
2021/06/15 07:51:58;;;;;;;9.95;7.20;;;;;;;18.44;79.12;94685.09;1724051;81;21002;-57
2021/06/15 07:54:25;;;;;;;9.68;7.65;;;;;;;18.51;77.37;94683.25;1732897;81;21101;-62
2021/06/15 07:56:52;;;;;;;8.68;7.12;;;;;;;18.51;76.85;94683.25;1699523;81;21303;-59
2021/06/15 07:59:19;;;;;;;8.25;7.33;;;;;;;18.53;76.31;94686.30;1713820;81;21065;-59
2021/06/15 08:01:46;;;;;;;9.60;7.70;;;;;;;18.54;75.90;94687.05;1707446;81;21153;-58
2021/06/15 08:04:15;;;;;;;14.45;9.55;;;;;;;18.57;76.00;94688.83;1714261;81;21062;-58
2021/06/15 08:06:42;;;;;;;9.38;7.47;;;;;;;18.61;75.98;94687.98;1671589;82;21073;-58
2021/06/15 08:09:10;;;;;;;10.80;9.58;;;;;;;18.63;76.16;94687.59;1667538;85;21185;-60
2021/06/15 08:11:38;;;;;;;10.10;7.62;;;;;;;18.68;76.01;94691.67;1708674;80;21078;-60
2021/06/15 08:14:05;;;;;;;8.20;7.28;;;;;;;18.71;74.84;94693.45;1685642;81;21489;-58
2021/06/15 08:16:31;;;;;;;9.05;7.40;;;;;;;18.69;74.05;94695.36;1705994;81;21073;-56
2021/06/15 08:18:58;;;;;;;9.58;7.90;;;;;;;18.66;73.77;94692.81;1713938;81;21070;-56
2021/06/15 08:21:26;;;;;;;12.63;7.70;;;;;;;18.63;73.69;94691.77;1706361;82;21493;-59
2021/06/15 08:23:53;;;;;;;22.02;14.93;;;;;;;18.61;73.81;94690.13;1725797;81;21108;-58
2021/06/15 08:26:20;;;;;;;11.22;8.70;;;;;;;18.61;73.65;94690.13;1701030;80;21065;-59
2021/06/15 08:28:46;;;;;;;8.90;7.47;;;;;;;18.67;73.57;94689.50;1703506;82;21174;-60
2021/06/15 08:31:13;;;;;;;8.85;6.53;;;;;;;18.81;73.78;94689.20;1710082;81;21082;-59
2021/06/15 08:33:41;;;;;;;10.23;6.78;;;;;;;18.90;73.55;94679.98;1709690;81;21110;-56
2021/06/15 08:36:08;;;;;;;8.03;7.22;;;;;;;18.91;72.97;94671.74;1700625;82;21021;-60
2021/06/15 08:38:35;;;;;;;7.00;6.08;;;;;;;18.91;73.02;94678.71;1715293;82;20978;-59
2021/06/15 08:41:02;;;;;;;6.20;5.40;;;;;;;18.95;73.16;94679.84;1728593;80;21055;-57
2021/06/15 08:43:30;;;;;;;6.80;6.10;;;;;;;18.99;72.61;94681.13;1674366;83;21197;-57
2021/06/15 08:45:56;;;;;;;7.05;5.92;;;;;;;19.11;72.41;94678.52;1631973;85;21197;-58
2021/06/15 08:48:23;;;;;;;7.83;6.55;;;;;;;19.26;72.16;94674.90;1663388;84;21137;-71
2021/06/15 08:50:50;;;;;;;7.12;6.30;;;;;;;19.40;72.25;94678.06;1650311;84;21032;-60
2021/06/15 08:53:17;;;;;;;7.87;6.92;;;;;;;19.54;71.84;94678.47;1603649;86;21587;-65
2021/06/15 08:55:50;;;;;;;8.58;7.00;;;;;;;19.67;71.22;94682.92;1656112;84;21059;-63
2021/06/15 08:58:45;;;;;;;8.55;7.40;;;;;;;19.83;71.03;94680.77;1667762;84;21136;-61
2021/06/15 09:01:13;;;;;;;10.30;9.00;;;;;;;19.97;72.14;94683.94;1654199;83;21112;-63
2021/06/15 09:03:40;;;;;;;13.05;9.80;;;;;;;20.01;72.02;94682.27;1663478;83;21118;-63
2021/06/15 09:06:07;;;;;;;14.13;9.23;;;;;;;20.03;72.24;94691.70;1673334;83;21094;-61
2021/06/15 09:08:57;;;;;;;11.88;9.28;;;;;;;20.00;72.19;94682.91;1655724;84;21148;-61
2021/06/15 09:11:24;;;;;;;12.55;8.30;;;;;;;19.95;72.70;94680.87;1672526;84;21145;-61
2021/06/15 09:13:53;;;;;;;10.20;8.10;;;;;;;19.98;73.26;94679.88;1639128;83;21532;-61
2021/06/15 09:16:29;;;;;;;12.33;9.00;;;;;;;20.01;73.14;94681.64;1677474;83;21058;-57
2021/06/15 09:18:58;;;;;;;10.93;8.60;;;;;;;20.05;72.97;94683.56;1663050;83;21545;-58
2021/06/15 09:21:38;;;;;;;9.85;7.78;;;;;;;20.08;72.61;94685.33;1664297;85;21511;-59
2021/06/15 09:24:13;;;;;;;10.00;8.60;;;;;;;20.02;71.06;94681.02;1643619;85;21138;-59
2021/06/15 09:27:06;;;;;;;9.63;8.20;;;;;;;19.91;71.43;94685.95;1665062;85;21085;-58
2021/06/15 09:29:39;;;;;;;11.25;9.13;;;;;;;19.86;72.04;94682.54;1656039;85;21066;-61
2021/06/15 09:32:11;;;;;;;10.78;9.08;;;;;;;19.94;72.24;94684.93;1673285;84;21159;-59
2021/06/15 09:34:56;;;;;;;11.45;9.08;;;;;;;20.13;73.05;94683.16;1658009;85;21120;-57
2021/06/15 09:37:36;;;;;;;13.85;9.70;;;;;;;20.31;71.94;94687.59;1653328;83;21183;-59
2021/06/15 09:40:11;;;;;;;9.45;8.20;;;;;;;20.53;71.67;94687.52;1664458;84;21071;-59
2021/06/15 09:43:04;;;;;;;11.78;8.53;;;;;;;20.75;70.81;94685.30;1672913;83;21506;-60
2021/06/15 09:45:47;;;;;;;9.40;8.50;;;;;;;20.79;69.55;94690.75;1666101;83;21144;-59
2021/06/15 09:48:29;;;;;;;11.73;9.15;;;;;;;20.83;69.85;94692.66;1700985;80;21124;-59
2021/06/15 09:51:05;;;;;;;10.75;9.13;;;;;;;20.81;69.67;94690.22;1715843;82;21197;-61
2021/06/15 09:53:36;;;;;;;13.05;9.28;;;;;;;20.69;69.71;94694.33;1699480;81;21561;-65
2021/06/15 09:56:07;;;;;;;11.30;9.00;;;;;;;20.54;69.51;94693.89;1714577;80;21697;-60
2021/06/15 09:58:47;;;;;;;17.40;9.93;;;;;;;20.41;69.30;94684.62;1726910;81;21067;-57
2021/06/15 10:01:39;;;;;;;17.00;8.18;;;;;;;20.35;69.65;94685.94;1709084;81;22732;-57
2021/06/15 10:04:20;;;;;;;15.38;9.73;;;;;;;20.39;69.94;94684.38;1717357;81;21132;-60
2021/06/15 10:06:49;;;;;;;15.13;10.98;;;;;;;20.48;70.10;94687.53;1724501;81;21603;-58
2021/06/15 10:09:28;;;;;;;10.88;8.75;;;;;;;20.61;69.24;94682.16;1706357;81;21753;-61
2021/06/15 10:12:06;;;;;;;13.70;8.30;;;;;;;20.79;69.28;94687.19;1725788;80;21054;-62
2021/06/15 10:14:37;;;;;;;10.75;9.25;;;;;;;20.93;68.72;94680.55;1714498;81;21989;-60
2021/06/15 10:17:04;;;;;;;11.05;8.20;;;;;;;21.06;68.69;94682.11;1714648;81;21131;-58
2021/06/15 10:19:32;;;;;;;9.83;8.83;;;;;;;21.21;68.24;94678.35;1706738;81;21042;-58
2021/06/15 10:22:00;;;;;;;15.68;9.53;;;;;;;21.34;67.58;94675.73;1721711;82;21648;-61
2021/06/15 10:24:28;;;;;;;16.20;9.98;;;;;;;21.42;67.17;94679.49;1719606;82;21547;-59
2021/06/15 10:26:56;;;;;;;14.47;10.30;;;;;;;21.56;67.07;94678.38;1707521;82;21070;-60
2021/06/15 10:29:25;;;;;;;13.08;9.93;;;;;;;21.64;65.27;94679.39;1723069;81;21147;-60
2021/06/15 10:31:53;;;;;;;12.70;9.90;;;;;;;21.73;65.23;94678.42;1712844;82;21097;-57
2021/06/15 10:34:57;;;;;;;14.35;9.33;;;;;;;21.84;66.17;94678.97;1717426;81;21125;-57
2021/06/15 10:37:38;;;;;;;11.25;9.38;;;;;;;21.81;65.41;94675.16;1707952;81;21013;-58
2021/06/15 10:40:20;;;;;;;12.07;9.10;;;;;;;21.82;65.67;94678.74;1716969;81;21027;-59
2021/06/15 10:43:18;;;;;;;11.00;9.78;;;;;;;21.85;65.05;94680.50;1710368;81;21130;-60
2021/06/15 10:45:55;;;;;;;10.30;9.25;;;;;;;21.88;65.30;94683.65;1709348;82;21557;-64
2021/06/15 10:48:26;;;;;;;14.83;9.58;;;;;;;21.79;65.24;94688.16;1663912;82;20972;-59
2021/06/15 10:50:55;;;;;;;19.00;11.18;;;;;;;21.75;64.46;94687.06;1694992;82;21076;-56
2021/06/15 10:56:23;;;;;;;10.78;9.03;;;;;;;21.75;65.35;94685.66;1700311;82;21157;-56
2021/06/15 10:58:57;;;;;;;15.55;10.43;;;;;;;21.73;63.90;94682.63;1699987;82;22232;-59
2021/06/15 11:01:27;;;;;;;13.20;10.35;;;;;;;21.72;64.86;94681.11;1710821;81;21039;-59
2021/06/15 11:04:02;;;;;;;13.08;9.53;;;;;;;21.68;64.37;94677.06;1697765;82;21167;-59
2021/06/15 11:06:35;;;;;;;9.65;8.45;;;;;;;21.69;64.49;94672.98;1698758;81;22717;-60
2021/06/15 11:09:18;;;;;;;11.12;9.28;;;;;;;21.72;65.40;94669.13;1696135;81;21101;-56
2021/06/15 11:11:46;;;;;;;9.58;7.83;;;;;;;21.79;66.33;94662.95;1709413;81;20950;-60
2021/06/15 11:14:22;;;;;;;20.55;9.68;;;;;;;21.98;62.86;94666.64;1708739;82;21014;-59
2021/06/15 11:16:51;;;;;;;10.45;8.50;;;;;;;22.07;63.13;94660.05;1682802;82;21133;-56
2021/06/15 11:19:26;;;;;;;10.15;8.43;;;;;;;22.39;62.30;94661.79;1697369;81;21076;-60
2021/06/15 11:22:01;;;;;;;14.13;8.73;;;;;;;22.63;61.08;94657.56;1711472;81;21154;-60
2021/06/15 11:24:34;;;;;;;15.85;10.35;;;;;;;22.82;60.80;94654.14;1696432;82;21151;-61
2021/06/15 11:27:11;;;;;;;11.78;8.05;;;;;;;22.91;61.14;94651.62;1668470;83;21077;-61
2021/06/15 11:29:42;;;;;;;11.65;9.90;;;;;;;22.89;60.05;94649.36;1687816;82;21027;-62
2021/06/15 11:32:26;;;;;;;11.55;8.28;;;;;;;22.73;60.52;94638.33;1659291;83;21075;-61
2021/06/15 11:34:59;;;;;;;10.35;7.95;;;;;;;22.55;59.58;94641.22;1719617;81;22351;-60
2021/06/15 11:37:46;;;;;;;8.83;6.95;;;;;;;22.38;60.31;94635.67;1696438;83;21064;-57
2021/06/15 11:40:35;;;;;;;9.60;7.53;;;;;;;22.21;60.41;94635.83;1703589;82;21387;-58
2021/06/15 11:43:16;;;;;;;7.62;6.92;;;;;;;22.04;60.76;94633.83;1670008;82;21069;-58
2021/06/15 11:45:47;;;;;;;13.15;8.70;;;;;;;21.73;60.76;94646.22;1686818;82;21205;-62
2021/06/15 11:48:31;;;;;;;12.70;8.48;;;;;;;21.37;61.77;94640.48;1711604;80;21635;-63
2021/06/15 11:51:01;;;;;;;9.55;8.65;;;;;;;21.11;62.88;94635.92;1704615;81;21544;-66
2021/06/15 11:53:30;;;;;;;7.65;6.95;;;;;;;20.86;63.92;94639.89;1704172;81;21048;-60
2021/06/15 11:56:02;;;;;;;8.08;7.10;;;;;;;20.68;64.59;94636.26;1705549;80;21053;-62
2021/06/15 11:58:54;;;;;;;8.58;7.33;;;;;;;20.54;64.58;94633.79;1706004;82;21080;-59